Nearby METAR Reports


Data Updates Approximately Every Four Hours

METAR is the international standard code format for hourly surface weather observations which is analogous to the SA coding currently used in the US. The acronym roughly translates from French as Aviation Routine Weather Report. SPECI is merely the code name given to METAR formatted products which are issued on a special non-routine basis as dictated by changing meteorological conditions. The SPECI acronym roughly translates as Aviation Selected Special Weather Report.

KSLH - Cheboygan, Michigan, USA
Distance from station: W 9mi, 14km
Updated: 06/18/2018 7:15am
Light rain, Overcast
Light rain, Overcast
 Wind from W
Wind: W 7 mph , 11 km/h
Temperature: 70°F , 21°C
Dew Point: 68°F , 20°C
Humidity: 94%
Barometer: 29.83 inHg , 1010.2 hPa
Summary: Light rain
Clouds: Overcast
Visibility: 5 miles , 8 km
Cloud details: Overcast 1200 ft
2018/06/18 11:15 KSLH 181115Z AUTO 26006KT 5SM -RA OVC012 21/20 A2983 RMK AO2 T02110200
KMCD - Mackinac Island, Michigan, USA
Distance from station: NW 19mi, 31km
Updated: 06/18/2018 7:15am
Overcast
Overcast
 Wind from W
Wind: W 6 mph , 9 km/h
Temperature: 64°F , 18°C
Dew Point: 64°F , 18°C
Humidity: 100%
Barometer: 29.85 inHg , 1010.8 hPa
Clouds: Overcast
Visibility: 10 miles , 16 km
Cloud details: Mostly cloudy 400 ft
Overcast 1000 ft
2018/06/18 11:15 KMCD 181115Z AUTO 27005KT 10SM BKN004 OVC010 18/18 A2985 RMK AO2 T01770177
 
KPLN - Pellston, Michigan, USA
Distance from station: WSW 24mi, 38km
Updated: 06/18/2018 7:17am
Overcast
Overcast
 Wind from W
Wind: W 7 mph , 11 km/h, Gust: 20 mph , 31 km/h
Temperature: 72°F , 22°C
Dew Point: 70°F , 21°C
Humidity: 94%
Barometer: 29.85 inHg , 1010.8 hPa
Clouds: Overcast
Visibility: 10 miles , 16 km
Cloud details: Overcast 900 ft
2018/06/18 11:17 KPLN 181117Z AUTO 27006G17KT 10SM OVC009 22/21 A2985 RMK AO2 RAE15 CIG 006V011 P0002 T02170206
KPZQ - Rogers City, Michigan, USA
Distance from station: SE 31mi, 50km
Updated: 06/18/2018 7:15am
Mostly cloudy
Mostly cloudy
 Wind from WSW
Wind: WSW 6 mph , 9 km/h
Temperature: 73°F , 23°C
Dew Point: 68°F , 20°C
Humidity: 83%
Barometer: 29.85 inHg , 1010.8 hPa
Clouds: Mostly cloudy
Visibility: 10 miles , 16 km
Cloud details: Mostly cloudy 6500 ft
Mostly cloudy 9000 ft
2018/06/18 11:15 KPZQ 181115Z AUTO 25005KT 10SM BKN065 BKN090 23/20 A2985 RMK AO2 T02250199
 
KMGN - Harbor Springs, Michigan, USA
Distance from station: WSW 32mi, 52km
Updated: 06/18/2018 7:15am
Overcast
Overcast
 Wind from WSW
Wind: WSW 3 mph , 6 km/h
Temperature: 68°F , 20°C
Dew Point: 68°F , 20°C
Humidity: 100%
Barometer: 29.85 inHg , 1010.8 hPa
Clouds: Overcast
Visibility: 10 miles , 16 km
Cloud details: Overcast 1000 ft
2018/06/18 11:15 KMGN 181115Z AUTO 25003KT 10SM OVC010 20/20 A2985 RMK AO2 T02000197
KDRM - Drummond Is, Michigan, USA
Distance from station: NE 36mi, 59km
Updated: 06/18/2018 7:15am
Overcast
Overcast
 Wind from calm
Wind: Calm
Temperature: 68°F , 20°C
Dew Point: 68°F , 20°C
Humidity: 100%
Barometer: 29.83 inHg , 1010.2 hPa
Clouds: Overcast
Visibility: 7 miles , 11 km
Cloud details: Overcast 800 ft
2018/06/18 11:15 KDRM 181115Z AUTO 00000KT 7SM OVC008 20/20 A2983 RMK AO2 T02010196
 
KCIU - Chippewa Intl, Michigan, USA
Distance from station: N 41mi, 66km
Updated: 06/18/2018 6:56am
Overcast
Overcast
 Wind from WSW
Wind: WSW 7 mph , 11 km/h
Temperature: 66°F , 19°C
Dew Point: 66°F , 19°C
Humidity: 100%
Barometer: 29.84 inHg , 1010.5 hPa
Clouds: Overcast
Visibility: 7 miles , 11 km
Cloud details: Overcast 200 ft
2018/06/18 10:56 KCIU 181056Z AUTO 25006KT 7SM OVC002 19/19 A2984 RMK AO2 SLP118 T01890189 PNO $
KGLR - Gaylord, Michigan, USA
Distance from station: SSW 48mi, 77km
Updated: 06/18/2018 6:53am
Overcast
Overcast
 Wind from WSW
Wind: WSW 15 mph , 24 km/h
Temperature: 70°F , 21°C
Dew Point: 70°F , 21°C
Humidity: 100%
Barometer: 29.88 inHg , 1011.9 hPa
Clouds: Overcast
Visibility: 10 miles , 16 km
Cloud details: Mostly cloudy 900 ft
Overcast 1300 ft
2018/06/18 10:53 KGLR 181053Z AUTO 24013KT 10SM BKN009 OVC013 21/21 A2988 RMK AO2 CIG 007V012 SLP109 T02110206 $
 
KCVX - Charlevoix, Michigan, USA
Distance from station: WSW 52mi, 83km
Updated: 06/18/2018 7:15am
Overcast
Overcast
 Wind from WSW
Wind: WSW 12 mph , 19 km/h, Gust: 22 mph , 35 km/h
Temperature: 72°F , 22°C
Dew Point: 72°F , 22°C
Humidity: 100%
Barometer: 29.88 inHg , 1011.9 hPa
Clouds: Overcast
Visibility: 10 miles , 16 km
Cloud details: Overcast 1000 ft
2018/06/18 11:15 KCVX 181115Z AUTO 24010G19KT 10SM OVC010 22/22 A2988 RMK AO2 T02150215
KANJ - Sault Ste Marie, Michigan, USA
Distance from station: N 56mi, 89km
Updated: 06/18/2018 6:55am
Overcast
Overcast
 Wind from W
Wind: W 3 mph , 6 km/h
Temperature: 68°F , 20°C
Dew Point: 66°F , 19°C
Humidity: 94%
Barometer: 29.82 inHg , 1009.8 hPa
Clouds: Overcast
Visibility: 8 miles , 13 km
Cloud details: Overcast 400 ft
2018/06/18 10:55 KANJ 181055Z AUTO 27003KT 8SM OVC004 20/19 A2982 RMK AO2 SLP094 T02000189
 
KAPN - Alpena, Michigan, USA
Distance from station: SE 56mi, 89km
Updated: 06/18/2018 6:54am
Overcast
Overcast
 Wind from WSW
Wind: WSW 6 mph , 9 km/h
Temperature: 73°F , 23°C
Dew Point: 70°F , 21°C
Humidity: 89%
Barometer: 29.85 inHg , 1010.8 hPa
Clouds: Overcast
Visibility: 10 miles , 16 km
Cloud details: Mostly cloudy 7500 ft
Overcast 12000 ft
2018/06/18 10:54 KAPN 181054Z AUTO 25005KT 10SM BKN075 OVC120 23/21 A2985 RMK AO2 SLP102 T02330206
CYAM - Sault Ste Marie, Ontario, Canada
Distance from station: N 56mi, 90km
Updated: 06/18/2018 7:16am
Light rain, Fog, Overcast
Light rain, Fog, Overcast
 Wind from WNW
Wind: WNW 5 mph , 7 km/h
Temperature: 64°F , 18°C
Dew Point: 63°F , 17°C
Humidity: 94%
Barometer: 29.82 inHg , 1009.8 hPa
Summary: Light rain, Fog
Clouds: Overcast
Visibility: 1/2 mile , 0.8 km
Cloud details: Mostly cloudy 200 ft
Overcast 800 ft
2018/06/18 11:16 CYAM 181116Z 30004KT 1/2SM R12/3000FT/D -RA FG BKN002 OVC008 18/17 A2982 RMK FG6ST1ST1 SLP099 DENSITY ALT 1200FT
 
KSJX - Beaver Island, Michigan, USA
Distance from station: W 60mi, 96km
Updated: 06/18/2018 7:16am
Drizzle, Overcast
Drizzle, Overcast
 Wind from WSW
Wind: WSW 10 mph , 17 km/h
Temperature: 61°F , 16°C
Dew Point: 61°F , 16°C
Humidity: 100%
Barometer: 29.87 inHg , 1011.5 hPa
Summary: Drizzle
Clouds: Overcast
Visibility: 1/4 mile , 0.4 km
Cloud details: Overcast 200 ft
2018/06/18 11:16 KSJX 181116Z AUTO 24009KT 1/4SM DZ OVC002 16/16 A2987 RMK AO2 T01560155
KACB - Bellaire, Michigan, USA
Distance from station: SW 63mi, 102km
Updated: 06/18/2018 7:15am
Overcast
Overcast
 Wind from calm
Wind: Calm
Temperature: 72°F , 22°C
Dew Point: 70°F , 21°C
Humidity: 94%
Barometer: 29.87 inHg , 1011.5 hPa
Clouds: Overcast
Visibility: 10 miles , 16 km
Cloud details: Overcast 1100 ft
2018/06/18 11:15 KACB 181115Z AUTO 00000KT 10SM OVC011 22/21 A2987 RMK AO2 T02150205
 
CWNL - Great Duck Island, Ontario, Canada
Distance from station: E 66mi, 106km
Updated: 06/18/2018 6:00am
NOT Current

 Wind from NNW
Wind: NNW 6 mph , 9 km/h
Temperature: 57°F , 14°C
Dew Point: 55°F , 13°C
Humidity: 94%
2018/06/18 10:00 CWNL 181000Z AUTO 34005KT 14/13 RMK AO1 SLP104 T01370127 53009
KERY - Newberry, Michigan, USA
Distance from station: NW 69mi, 112km
Updated: 06/18/2018 7:15am
Fog, Overcast
Fog, Overcast
 Wind from SW
Wind: SW 5 mph , 7 km/h
Temperature: 66°F , 19°C
Dew Point: 64°F , 18°C
Humidity: 94%
Barometer: 29.84 inHg , 1010.5 hPa
Summary: Fog
Clouds: Overcast
Visibility: 1/4 mile , 0.4 km
Cloud details: Overcast 300 ft
2018/06/18 11:15 KERY 181115Z AUTO 23004KT 1/4SM FG OVC003 19/18 A2984 RMK AO2 T01860181
 
KGOV - Grayling Af, Michigan, USA
Distance from station: SSW 70mi, 113km
Updated: 06/17/2018 7:58pm
NOT Current
Clear
Clear
 Wind from SW
Wind: SW 16 mph , 26 km/h, Gust: 23 mph , 37 km/h
Temperature: 88°F , 31°C
Heat Index: 92°F , 33°C
Dew Point: 68°F , 20°C
Humidity: 52%
Barometer: 29.88 inHg , 1011.9 hPa
Clouds: Clear
Visibility: 10 miles , 16 km
2018/06/17 23:58 KGOV 172358Z AUTO 23014G20KT 10SM CLR 31/20 A2988 RMK AO2 SLP116 T03070196 10333 20307 55008 $